^^
Station Historical Data
Daily Summary for January 2, 2021 Units:  English    Metric   Both
Daily Weekly Monthly Yearly
  High: Low: Average:
Temperature: 35.3 °F 26.9 °F 31.9 °F
Dew Point: 31.5 °F 23 °F 28.6 °F
Humidity: 93% 78% 88%
Wind Speed: 3mph 0mph 1.3mph
Wind Gust: 7mph - -
Wind- - West
Pressure: 30.10 in 29.79 in -
Precipitation: 0.15 in    
 
 
Tabular Data for January 2, 2021
Time Temperature Dew Point Pressure Wind Wind Speed Wind Gust Humidity Rainfall Rate (Hourly) solar
00:00 32.7 °F 30.6 °F 29.81 in ESE 2 mph 2 mph 92% 0.00 in 0 W/m2
00:05 32.7 °F 30.6 °F 29.81 in NE 3 mph 3 mph 92% 0.00 in 0 W/m2
00:10 32.8 °F 30.7 °F 29.80 in ENE 3 mph 3 mph 92% 0.00 in 0 W/m2
00:15 32.7 °F 30.6 °F 29.80 in NNE 2 mph 3 mph 92% 0.00 in 0 W/m2
00:20 32.7 °F 30.6 °F 29.79 in ENE 1 mph 1 mph 92% 0.00 in 0 W/m2
00:25 32.8 °F 30.7 °F 29.79 in NW 1 mph 1 mph 92% 0.00 in 0 W/m2
00:30 32.8 °F 30.7 °F 29.80 in NW 1 mph 1 mph 92% 0.00 in 0 W/m2
00:35 32.8 °F 30.7 °F 29.80 in NNW 1 mph 1 mph 92% 0.00 in 0 W/m2
00:40 32.8 °F 30.7 °F 29.80 in NE 1 mph 2 mph 92% 0.00 in 0 W/m2
00:45 32.8 °F 31 °F 29.80 in ENE 1 mph 2 mph 93% 0.00 in 0 W/m2
00:50 32.8 °F 30.7 °F 29.80 in NNE 2 mph 4 mph 92% 0.00 in 0 W/m2
00:55 32.8 °F 31 °F 29.81 in ENE 3 mph 4 mph 93% 0.00 in 0 W/m2
01:00 32.8 °F 30.7 °F 29.81 in ENE 2 mph 2 mph 92% 0.00 in 0 W/m2
01:05 32.8 °F 30.7 °F 29.81 in ENE 2 mph 2 mph 92% 0.00 in 0 W/m2
01:10 32.8 °F 31 °F 29.82 in ENE 1 mph 1 mph 93% 0.00 in 0 W/m2
01:15 32.8 °F 31 °F 29.82 in East 1 mph 1 mph 93% 0.00 in 0 W/m2
01:20 32.8 °F 31 °F 29.82 in ENE 1 mph 1 mph 93% 0.00 in 0 W/m2
01:25 32.8 °F 31 °F 29.83 in ENE 1 mph 1 mph 93% 0.00 in 0 W/m2
01:30 32.7 °F 30.9 °F 29.83 in Calm     93% 0.00 in 0 W/m2
01:35 32.7 °F 30.6 °F 29.83 in Calm     92% 0.00 in 0 W/m2
01:40 32.7 °F 30.9 °F 29.83 in Calm     93% 0.00 in 0 W/m2
01:45 32.7 °F 30.6 °F 29.84 in Calm   1 mph 92% 0.07 in 0 W/m2
01:50 32.6 °F 30.5 °F 29.84 in Calm     92% 0.09 in 0 W/m2
01:55 32.6 °F 30.5 °F 29.84 in Calm     92% 0.12 in 0 W/m2
02:00 32.6 °F 30.5 °F 29.84 in Calm     92% 0.13 in 0 W/m2
02:05 32.6 °F 30.5 °F 29.85 in Calm     92% 0.10 in 0 W/m2
02:10 32.6 °F 30.5 °F 29.86 in Calm     92% 0.10 in 0 W/m2
02:15 32.6 °F 30.5 °F 29.86 in Calm   1 mph 92% 0.10 in 0 W/m2
02:20 32.5 °F 30.4 °F 29.86 in Calm     92% 0.09 in 0 W/m2
02:25 32.5 °F 30.4 °F 29.87 in Calm     92% 0.12 in 0 W/m2
02:30 32.5 °F 30.4 °F 29.87 in North 1 mph 1 mph 92% 0.11 in 0 W/m2
02:35 32.5 °F 30.4 °F 29.88 in NNW 1 mph 3 mph 92% 0.08 in 0 W/m2
02:40 32.5 °F 30.4 °F 29.88 in NW 2 mph 2 mph 92% 0.06 in 0 W/m2
02:45 32.5 °F 30.4 °F 29.88 in NNW 2 mph 2 mph 92% 0.13 in 0 W/m2
02:50 32.5 °F 30.4 °F 29.89 in NW 2 mph 2 mph 92% 0.07 in 0 W/m2
02:55 32.5 °F 30.4 °F 29.88 in North 2 mph 2 mph 92% 0.05 in 0 W/m2
03:00 32.5 °F 30.4 °F 29.88 in North 2 mph 3 mph 92% 0.05 in 0 W/m2
03:05 32.5 °F 30.4 °F 29.88 in NW 2 mph 3 mph 92% 0.05 in 0 W/m2
03:10 32.4 °F 30.3 °F 29.88 in North 2 mph 3 mph 92% 0.00 in 0 W/m2
03:15 32.4 °F 30.6 °F 29.87 in NW 2 mph 3 mph 93% 0.00 in 0 W/m2
03:20 32.4 °F 30.6 °F 29.87 in NW 2 mph 2 mph 93% 0.00 in 0 W/m2
03:25 32.4 °F 30.6 °F 29.87 in NW 2 mph 4 mph 93% 0.00 in 0 W/m2
03:30 32.3 °F 30.5 °F 29.87 in NW 2 mph 3 mph 93% 0.00 in 0 W/m2
03:35 32.3 °F 30.5 °F 29.87 in North 2 mph 3 mph 93% 0.00 in 0 W/m2
03:40 32.4 °F 30.6 °F 29.88 in NNW 3 mph 4 mph 93% 0.00 in 0 W/m2
03:45 32.4 °F 30.6 °F 29.88 in North 3 mph 4 mph 93% 0.00 in 0 W/m2
03:50 32.5 °F 30.7 °F 29.89 in North 2 mph 2 mph 93% 0.00 in 0 W/m2
03:55 32.6 °F 30.8 °F 29.89 in NNW 3 mph 3 mph 93% 0.00 in 0 W/m2
04:00 32.6 °F 30.8 °F 29.88 in NNW 3 mph 4 mph 93% 0.00 in 0 W/m2
04:05 32.7 °F 30.9 °F 29.88 in NNE 3 mph 4 mph 93% 0.00 in 0 W/m2
04:10 32.8 °F 31 °F 29.88 in North 2 mph 2 mph 93% 0.00 in 0 W/m2
04:15 32.8 °F 31 °F 29.89 in NNW 3 mph 3 mph 93% 0.00 in 0 W/m2
04:20 32.8 °F 31 °F 29.89 in NW 3 mph 3 mph 93% 0.00 in 0 W/m2
04:25 32.7 °F 30.9 °F 29.90 in NNW 2 mph 4 mph 93% 0.00 in 0 W/m2
04:30 32.7 °F 30.9 °F 29.90 in North 2 mph 4 mph 93% 0.00 in 0 W/m2
04:35 32.6 °F 30.8 °F 29.91 in NNW 2 mph 4 mph 93% 0.00 in 0 W/m2
04:40 32.6 °F 30.8 °F 29.91 in NNW 3 mph 3 mph 93% 0.00 in 0 W/m2
04:45 32.6 °F 30.8 °F 29.91 in NNW 3 mph 3 mph 93% 0.00 in 0 W/m2
04:50 32.6 °F 30.8 °F 29.91 in NW 2 mph 2 mph 93% 0.00 in 0 W/m2
04:55 32.5 °F 30.7 °F 29.90 in North 2 mph 2 mph 93% 0.00 in 0 W/m2
05:00 32.5 °F 30.7 °F 29.91 in North 2 mph 3 mph 93% 0.00 in 0 W/m2
05:05 32.5 °F 30.7 °F 29.91 in NW 2 mph 3 mph 93% 0.00 in 0 W/m2
05:10 32.5 °F 30.7 °F 29.91 in NW 2 mph 2 mph 93% 0.00 in 0 W/m2
05:15 32.5 °F 30.7 °F 29.91 in NNW 2 mph 3 mph 93% 0.00 in 0 W/m2
05:20 32.5 °F 30.7 °F 29.92 in NNW 2 mph 2 mph 93% 0.00 in 0 W/m2
05:25 32.5 °F 30.7 °F 29.92 in NNW 2 mph 2 mph 93% 0.00 in 0 W/m2
05:30 32.5 °F 30.7 °F 29.92 in NNW 2 mph 2 mph 93% 0.00 in 0 W/m2
05:35 32.5 °F 30.7 °F 29.92 in NNW 2 mph 2 mph 93% 0.00 in 0 W/m2
05:40 32.4 °F 30.6 °F 29.93 in WNW 2 mph 2 mph 93% 0.00 in 0 W/m2
05:45 32.4 °F 30.6 °F 29.93 in NNW 2 mph 2 mph 93% 0.00 in 0 W/m2
05:50 32.5 °F 30.7 °F 29.93 in NNW 2 mph 2 mph 93% 0.00 in 0 W/m2
05:55 32.4 °F 30.6 °F 29.94 in NW 2 mph 2 mph 93% 0.00 in 0 W/m2
06:00 32.5 °F 30.7 °F 29.94 in North 2 mph 3 mph 93% 0.00 in 0 W/m2
06:05 32.5 °F 30.7 °F 29.95 in NNW 2 mph 3 mph 93% 0.00 in 0 W/m2
06:10 32.5 °F 30.7 °F 29.95 in NNW 1 mph 1 mph 93% 0.00 in 0 W/m2
06:15 32.6 °F 30.8 °F 29.95 in North 2 mph 2 mph 93% 0.00 in 0 W/m2
06:20 32.7 °F 30.9 °F 29.95 in North 2 mph 2 mph 93% 0.00 in 0 W/m2
06:25 32.7 °F 30.9 °F 29.96 in NNW 1 mph 3 mph 93% 0.00 in 0 W/m2
06:30 32.7 °F 30.9 °F 29.96 in NNE 2 mph 2 mph 93% 0.00 in 0 W/m2
06:35 32.8 °F 31 °F 29.96 in NNW 2 mph 3 mph 93% 0.00 in 0 W/m2
06:40 32.8 °F 31 °F 29.97 in North 2 mph 2 mph 93% 0.00 in 0 W/m2
06:45 32.8 °F 31 °F 29.97 in NW 1 mph 2 mph 93% 0.00 in 0 W/m2
06:50 32.8 °F 31 °F 29.97 in NNW 1 mph 1 mph 93% 0.00 in 0 W/m2
06:55 32.8 °F 31 °F 29.98 in NNW 1 mph 1 mph 93% 0.00 in 0 W/m2
07:00 32.8 °F 31 °F 29.98 in NNW 1 mph 1 mph 93% 0.00 in 0 W/m2
07:05 32.8 °F 31 °F 29.98 in NNW 1 mph 1 mph 93% 0.00 in 0 W/m2
07:10 32.8 °F 31 °F 29.98 in NNW 1 mph 3 mph 93% 0.00 in 0 W/m2
07:15 32.7 °F 30.9 °F 29.98 in WNW 1 mph 3 mph 93% 0.00 in 0 W/m2
07:20 32.7 °F 30.9 °F 29.99 in NW 1 mph 1 mph 93% 0.00 in 0 W/m2
07:25 32.8 °F 31 °F 29.99 in NW 1 mph 2 mph 93% 0.00 in 0 W/m2
07:30 32.6 °F 30.8 °F 29.99 in NW 1 mph 1 mph 93% 0.00 in 0 W/m2
07:35 32.6 °F 30.8 °F 29.99 in NW 1 mph 1 mph 93% 0.00 in 0 W/m2
07:40 32.6 °F 30.8 °F 30.00 in NW 1 mph 1 mph 93% 0.00 in 0 W/m2
07:45 32.5 °F 30.7 °F 30.00 in NNW 1 mph 1 mph 93% 0.00 in 0 W/m2
07:50 32.5 °F 30.7 °F 30.00 in NNW 1 mph 2 mph 93% 0.00 in 0 W/m2
07:55 32.5 °F 30.7 °F 30.00 in NNW 1 mph 2 mph 93% 0.00 in 0 W/m2
08:00 32.5 °F 30.7 °F 30.01 in NW 1 mph 1 mph 93% 0.00 in 0 W/m2
08:05 32.4 °F 30.6 °F 30.01 in NNW 2 mph 2 mph 93% 0.00 in 0 W/m2
08:10 32.4 °F 30.6 °F 30.02 in NNW 1 mph 1 mph 93% 0.00 in 0 W/m2
08:15 32.4 °F 30.6 °F 30.02 in NNW 1 mph 1 mph 93% 0.00 in 0 W/m2
08:20 32.4 °F 30.6 °F 30.02 in NNW 1 mph 3 mph 93% 0.00 in 5 W/m2
08:25 32.3 °F 30.5 °F 30.03 in NW 1 mph 3 mph 93% 0.00 in 7 W/m2
08:30 32.3 °F 30.5 °F 30.03 in NW 1 mph 1 mph 93% 0.00 in 7 W/m2
08:35 32.3 °F 30.5 °F 30.04 in NW 1 mph 1 mph 93% 0.00 in 9 W/m2
08:40 32.4 °F 30.6 °F 30.04 in NW 1 mph 1 mph 93% 0.00 in 11 W/m2
08:45 32.4 °F 30.6 °F 30.04 in Calm   1 mph 93% 0.00 in 11 W/m2
08:50 32.4 °F 30.6 °F 30.04 in NW 1 mph 1 mph 93% 0.00 in 12 W/m2
08:55 32.4 °F 30.6 °F 30.05 in Calm   1 mph 93% 0.00 in 14 W/m2
09:00 32.5 °F 30.7 °F 30.06 in Calm   2 mph 93% 0.00 in 16 W/m2
09:05 32.5 °F 30.7 °F 30.06 in Calm   2 mph 93% 0.00 in 16 W/m2
09:10 32.5 °F 30.7 °F 30.05 in North 1 mph 1 mph 93% 0.00 in 18 W/m2
09:15 32.5 °F 30.7 °F 30.05 in North 1 mph 2 mph 93% 0.00 in 19 W/m2
09:20 32.5 °F 30.7 °F 30.06 in NW 1 mph 1 mph 93% 0.00 in 21 W/m2
09:25 32.6 °F 30.8 °F 30.06 in NW 1 mph 1 mph 93% 0.00 in 23 W/m2
09:30 32.6 °F 30.8 °F 30.07 in NW 1 mph 1 mph 93% 0.00 in 23 W/m2
09:35 32.7 °F 30.9 °F 30.07 in NW 1 mph 1 mph 93% 0.00 in 25 W/m2
09:40 32.7 °F 30.9 °F 30.07 in NW 1 mph 1 mph 93% 0.00 in 26 W/m2
09:45 32.8 °F 31 °F 30.07 in NW 1 mph 2 mph 93% 0.00 in 28 W/m2
09:50 33 °F 31.2 °F 30.08 in NW 1 mph 1 mph 93% 0.00 in 32 W/m2
09:55 33.1 °F 31.3 °F 30.08 in NW 1 mph 1 mph 93% 0.00 in 33 W/m2
10:00 33.1 °F 31 °F 30.07 in NNW 1 mph 1 mph 92% 0.00 in 37 W/m2
10:05 33.1 °F 31 °F 30.08 in NW 1 mph 1 mph 92% 0.00 in 39 W/m2
10:10 33.3 °F 31.2 °F 30.08 in WNW 1 mph 2 mph 92% 0.00 in 42 W/m2
10:15 33.2 °F 31.1 °F 30.08 in WNW 1 mph 2 mph 92% 0.00 in 40 W/m2
10:20 33.3 °F 31.2 °F 30.08 in WNW 1 mph 1 mph 92% 0.00 in 42 W/m2
10:25 33.4 °F 31.3 °F 30.08 in WNW 1 mph 1 mph 92% 0.00 in 44 W/m2
10:30 33.6 °F 31.5 °F 30.09 in WNW 1 mph 1 mph 92% 0.00 in 47 W/m2
10:35 33.6 °F 31.3 °F 30.09 in NNW 1 mph 2 mph 91% 0.00 in 49 W/m2
10:40 33.5 °F 31.2 °F 30.09 in West 1 mph 2 mph 91% 0.00 in 51 W/m2
10:45 33.6 °F 31 °F 30.09 in West 2 mph 2 mph 90% 0.00 in 51 W/m2
10:50 33.6 °F 30.7 °F 30.09 in WSW 3 mph 3 mph 89% 0.00 in 49 W/m2
10:55 33.7 °F 30.8 °F 30.09 in NW 2 mph 3 mph 89% 0.00 in 49 W/m2
11:00 33.9 °F 30.7 °F 30.09 in NW 2 mph 2 mph 88% 0.00 in 51 W/m2
11:05 33.9 °F 30.7 °F 30.09 in NW 2 mph 2 mph 88% 0.00 in 49 W/m2
11:10 34.1 °F 30.6 °F 30.09 in NW 2 mph 2 mph 87% 0.00 in 51 W/m2
11:15 34.2 °F 30.7 °F 30.09 in West 1 mph 4 mph 87% 0.00 in 53 W/m2
11:20 34.4 °F 30.6 °F 30.09 in WNW 2 mph 2 mph 86% 0.00 in 58 W/m2
11:25 34.4 °F 30.6 °F 30.09 in WNW 1 mph 3 mph 86% 0.00 in 62 W/m2
11:30 34.4 °F 30.4 °F 30.09 in West 1 mph 2 mph 85% 0.00 in 67 W/m2
11:35 34.5 °F 30.5 °F 30.09 in WNW 2 mph 3 mph 85% 0.00 in 69 W/m2
11:40 34.5 °F 30.2 °F 30.08 in NW 2 mph 3 mph 84% 0.00 in 76 W/m2
11:45 34.6 °F 30.3 °F 30.08 in WNW 2 mph 3 mph 84% 0.00 in 76 W/m2
11:50 34.8 °F 30.5 °F 30.08 in WNW 2 mph 4 mph 84% 0.00 in 84 W/m2
11:55 34.8 °F 30.2 °F 30.08 in West 2 mph 4 mph 83% 0.00 in 84 W/m2
12:00 34.8 °F 30.2 °F 30.08 in West 2 mph 4 mph 83% 0.00 in 86 W/m2
12:05 34.6 °F 29.7 °F 30.08 in West 2 mph 4 mph 82% 0.00 in 84 W/m2
12:10 34.9 °F 30 °F 30.08 in WSW 2 mph 2 mph 82% 0.00 in 84 W/m2
12:15 35.1 °F 30.2 °F 30.08 in West 1 mph 2 mph 82% 0.00 in 84 W/m2
12:20 35 °F 29.8 °F 30.08 in WNW 2 mph 2 mph 81% 0.00 in 88 W/m2
12:25 34.9 °F 29.7 °F 30.08 in West 2 mph 2 mph 81% 0.00 in 91 W/m2
12:30 34.8 °F 29.6 °F 30.08 in WNW 2 mph 2 mph 81% 0.00 in 98 W/m2
12:35 34.9 °F 29.4 °F 30.08 in North 2 mph 2 mph 80% 0.00 in 100 W/m2
12:40 35.1 °F 29.9 °F 30.08 in WNW 1 mph 3 mph 81% 0.00 in 116 W/m2
12:45 35.2 °F 30 °F 30.08 in WNW 2 mph 3 mph 81% 0.00 in 116 W/m2
12:50 35.2 °F 30 °F 30.07 in NW 2 mph 2 mph 81% 0.00 in 142 W/m2
12:55 35.3 °F 29.7 °F 30.07 in NNW 2 mph 2 mph 80% 0.00 in 158 W/m2
13:00 34.2 °F 28.7 °F 30.07 in WNW 2 mph 2 mph 80% 0.00 in 174 W/m2
13:05 33.6 °F 28.4 °F 30.07 in West 3 mph 3 mph 81% 0.00 in 195 W/m2
13:10 33.6 °F 28.4 °F 30.07 in West 3 mph 3 mph 81% 0.00 in 213 W/m2
13:15 33.8 °F 28.6 °F 30.08 in WNW 3 mph 3 mph 81% 0.00 in 229 W/m2
13:20 33.8 °F 28.3 °F 30.07 in WNW 3 mph 3 mph 80% 0.00 in 207 W/m2
13:25 33.8 °F 28.3 °F 30.08 in West 3 mph 7 mph 80% 0.00 in 214 W/m2
13:30 34 °F 28.5 °F 30.08 in NW 3 mph 3 mph 80% 0.00 in 248 W/m2
13:35 34.1 °F 28.6 °F 30.08 in WNW 3 mph 3 mph 80% 0.00 in 283 W/m2
13:40 34.8 °F 28.6 °F 30.08 in NNW 3 mph 3 mph 78% 0.00 in 292 W/m2
13:45 35 °F 29.1 °F 30.08 in NNW 3 mph 3 mph 79% 0.00 in 276 W/m2
13:50 34.8 °F 28.6 °F 30.07 in NNW 3 mph 3 mph 78% 0.00 in 220 W/m2
13:55 34.4 °F 28.2 °F 30.08 in WNW 3 mph 3 mph 78% 0.00 in 188 W/m2
14:00 34.1 °F 28 °F 30.08 in NW 3 mph 4 mph 78% 0.00 in 202 W/m2
14:05 33.8 °F 27.7 °F 30.08 in NW 3 mph 4 mph 78% 0.00 in 214 W/m2
14:10 33.9 °F 27.8 °F 30.08 in NW 2 mph 2 mph 78% 0.00 in 185 W/m2
14:15 33.9 °F 27.8 °F 30.08 in WNW 2 mph 3 mph 78% 0.00 in 176 W/m2
14:20 33.8 °F 27.7 °F 30.08 in West 2 mph 2 mph 78% 0.00 in 186 W/m2
14:25 33.6 °F 27.5 °F 30.08 in NW 2 mph 2 mph 78% 0.00 in 214 W/m2
14:30 33.6 °F 27.5 °F 30.08 in NW 2 mph 2 mph 78% 0.00 in 171 W/m2
14:35 33.8 °F 28 °F 30.08 in NNW 2 mph 2 mph 79% 0.00 in 139 W/m2
14:40 33.6 °F 27.5 °F 30.08 in NW 2 mph 4 mph 78% 0.00 in 155 W/m2
14:45 33.6 °F 27.5 °F 30.09 in NW 2 mph 4 mph 78% 0.00 in 183 W/m2
14:50 33.6 °F 27.5 °F 30.09 in West 1 mph 1 mph 78% 0.00 in 193 W/m2
14:55 33.4 °F 27.3 °F 30.09 in WNW 2 mph 3 mph 78% 0.00 in 158 W/m2
15:00 33.5 °F 27.4 °F 30.09 in NW 2 mph 2 mph 78% 0.00 in 156 W/m2
15:05 33.4 °F 27.3 °F 30.09 in West 2 mph 4 mph 78% 0.00 in 155 W/m2
15:10 33.2 °F 27.1 °F 30.09 in NW 2 mph 2 mph 78% 0.00 in 144 W/m2
15:15 33.1 °F 27.3 °F 30.09 in WNW 3 mph 3 mph 79% 0.00 in 130 W/m2
15:20 32.6 °F 27.1 °F 30.09 in West 2 mph 2 mph 80% 0.00 in 118 W/m2
15:25 32.3 °F 27.1 °F 30.09 in West 1 mph 2 mph 81% 0.00 in 113 W/m2
15:30 32 °F 27.1 °F 30.09 in West 1 mph 1 mph 82% 0.00 in 118 W/m2
15:35 32 °F 26.8 °F 30.09 in West 1 mph 2 mph 81% 0.00 in 111 W/m2
15:40 32.5 °F 27 °F 30.09 in WSW 2 mph 2 mph 80% 0.00 in 118 W/m2
15:45 32.4 °F 26.9 °F 30.09 in WSW 2 mph 2 mph 80% 0.00 in 98 W/m2
15:50 32.5 °F 27 °F 30.09 in WNW 2 mph 2 mph 80% 0.00 in 88 W/m2
15:55 32.3 °F 27.1 °F 30.09 in West 2 mph 2 mph 81% 0.00 in 62 W/m2
16:00 32.2 °F 26.7 °F 30.09 in West 2 mph 2 mph 80% 0.00 in 58 W/m2
16:05 32 °F 26.8 °F 30.10 in West 2 mph 4 mph 81% 0.00 in 58 W/m2
16:10 32 °F 26.8 °F 30.10 in West 2 mph 3 mph 81% 0.00 in 58 W/m2
16:15 32 °F 26.8 °F 30.10 in West 2 mph 3 mph 81% 0.00 in 51 W/m2
16:20 31.9 °F 26.7 °F 30.10 in West 2 mph 2 mph 81% 0.00 in 37 W/m2
16:25 31.8 °F 26.9 °F 30.10 in West 1 mph 2 mph 82% 0.00 in 39 W/m2
16:30 31.7 °F 26.5 °F 30.09 in West 1 mph 2 mph 81% 0.00 in 26 W/m2
16:35 31.6 °F 26.7 °F 30.09 in West 1 mph 2 mph 82% 0.00 in 26 W/m2
16:40 31.5 °F 26.6 °F 30.09 in West 2 mph 2 mph 82% 0.00 in 26 W/m2
16:45 31.5 °F 26.6 °F 30.09 in West 2 mph 2 mph 82% 0.00 in 19 W/m2
16:50 31.4 °F 26.5 °F 30.09 in West 1 mph 1 mph 82% 0.00 in 9 W/m2
16:55 31.4 °F 26.5 °F 30.10 in West 1 mph 2 mph 82% 0.00 in 7 W/m2
17:00 31.4 °F 26.5 °F 30.10 in West 1 mph 1 mph 82% 0.00 in 5 W/m2
17:05 31.4 °F 26.5 °F 30.10 in West 1 mph 1 mph 82% 0.00 in 5 W/m2
17:10 31.4 °F 26.5 °F 30.10 in West 1 mph 1 mph 82% 0.00 in 0 W/m2
17:15 31.4 °F 26.5 °F 30.10 in Calm   1 mph 82% 0.00 in 0 W/m2
17:20 31.2 °F 26.3 °F 30.10 in West 1 mph 1 mph 82% 0.00 in 0 W/m2
17:25 31.1 °F 26 °F 30.10 in Calm   1 mph 81% 0.00 in 0 W/m2
17:30 31 °F 26.1 °F 30.10 in Calm     82% 0.00 in 0 W/m2
17:35 30.8 °F 26 °F 30.10 in Calm   1 mph 82% 0.00 in 0 W/m2
17:40 30.7 °F 25.9 °F 30.10 in Calm     82% 0.00 in 0 W/m2
17:45 30.5 °F 25.7 °F 30.10 in Calm   1 mph 82% 0.00 in 0 W/m2
17:50 30.4 °F 25.6 °F 30.10 in Calm   2 mph 82% 0.00 in 0 W/m2
17:55 30.2 °F 25.4 °F 30.10 in West 1 mph 2 mph 82% 0.00 in 0 W/m2
18:00 30.1 °F 25.3 °F 30.10 in West 1 mph 2 mph 82% 0.00 in 0 W/m2
18:05 29.9 °F 25.4 °F 30.10 in West 1 mph 2 mph 83% 0.00 in 0 W/m2
18:10 29.7 °F 25.2 °F 30.10 in WSW 1 mph 1 mph 83% 0.00 in 0 W/m2
18:15 29.6 °F 25.1 °F 30.10 in SSW 2 mph 3 mph 83% 0.00 in 0 W/m2
18:20 29.4 °F 25.2 °F 30.10 in SW 2 mph 3 mph 84% 0.00 in 0 W/m2
18:25 29.1 °F 24.9 °F 30.10 in SW 2 mph 3 mph 84% 0.00 in 0 W/m2
18:30 28.9 °F 24.7 °F 30.10 in SW 2 mph 2 mph 84% 0.00 in 0 W/m2
18:35 28.8 °F 24.6 °F 30.10 in SW 2 mph 2 mph 84% 0.00 in 0 W/m2
18:40 28.7 °F 24.5 °F 30.10 in SW 2 mph 2 mph 84% 0.00 in 0 W/m2
18:45 28.7 °F 24.8 °F 30.10 in SW 2 mph 2 mph 85% 0.00 in 0 W/m2
18:50 28.7 °F 24.8 °F 30.10 in SW 1 mph 2 mph 85% 0.00 in 0 W/m2
18:55 28.8 °F 24.9 °F 30.10 in SW 2 mph 2 mph 85% 0.00 in 0 W/m2
19:00 28.9 °F 25 °F 30.10 in SW 2 mph 2 mph 85% 0.00 in 0 W/m2
19:05 28.9 °F 25 °F 30.10 in SW 2 mph 2 mph 85% 0.00 in 0 W/m2
19:10 29 °F 25.1 °F 30.10 in SW 1 mph 1 mph 85% 0.00 in 0 W/m2
19:15 29 °F 25.1 °F 30.09 in SW 1 mph 1 mph 85% 0.00 in 0 W/m2
19:20 29 °F 25.1 °F 30.10 in Calm   1 mph 85% 0.00 in 0 W/m2
19:25 29 °F 25.1 °F 30.10 in Calm   1 mph 85% 0.00 in 0 W/m2
19:30 28.8 °F 24.9 °F 30.10 in Calm     85% 0.00 in 0 W/m2
19:35 28.5 °F 24.3 °F 30.10 in Calm     84% 0.00 in 0 W/m2
19:40 28.1 °F 23.9 °F 30.10 in Calm     84% 0.00 in 0 W/m2
19:45 27.6 °F 23.1 °F 30.09 in Calm   2 mph 83% 0.00 in 0 W/m2
19:50 27.2 °F 23 °F 30.10 in SSW 1 mph 1 mph 84% 0.00 in 0 W/m2
19:55 26.9 °F 23 °F 30.09 in SSW 1 mph 1 mph 85% 0.00 in 0 W/m2
20:00 27 °F 23.4 °F 30.09 in SSW 1 mph 1 mph 86% 0.00 in 0 W/m2
20:05 26.9 °F 23.3 °F 30.09 in SSW 1 mph 1 mph 86% 0.00 in 0 W/m2
20:10 27 °F 23.4 °F 30.09 in Calm   1 mph 86% 0.00 in 0 W/m2
20:15 27.2 °F 23.8 °F 30.09 in Calm   1 mph 87% 0.00 in 0 W/m2
20:20 27.6 °F 24.5 °F 30.09 in WNW 1 mph 1 mph 88% 0.00 in 0 W/m2
20:25 27.9 °F 24.8 °F 30.08 in WNW 1 mph 1 mph 88% 0.00 in 0 W/m2
20:30 28.2 °F 25.1 °F 30.09 in WNW 1 mph 1 mph 88% 0.00 in 0 W/m2
20:35 28.3 °F 25.2 °F 30.09 in WNW 1 mph 1 mph 88% 0.00 in 0 W/m2
20:40 28.4 °F 25.3 °F 30.08 in Calm     88% 0.00 in 0 W/m2
20:45 28.6 °F 25.5 °F 30.09 in WNW 1 mph 1 mph 88% 0.00 in 0 W/m2
20:50 28.8 °F 25.7 °F 30.08 in Calm     88% 0.00 in 0 W/m2
20:55 28.8 °F 25.7 °F 30.08 in Calm     88% 0.00 in 0 W/m2
21:00 28.9 °F 25.8 °F 30.08 in Calm     88% 0.00 in 0 W/m2
21:05 29 °F 25.9 °F 30.07 in Calm   1 mph 88% 0.00 in 0 W/m2
21:10 28.9 °F 25.8 °F 30.07 in Calm   1 mph 88% 0.00 in 0 W/m2
21:15 29 °F 25.9 °F 30.07 in Calm   1 mph 88% 0.00 in 0 W/m2
21:20 29.1 °F 26 °F 30.07 in Calm     88% 0.00 in 0 W/m2
21:25 29 °F 25.9 °F 30.07 in Calm   1 mph 88% 0.00 in 0 W/m2
21:30 29.1 °F 26 °F 30.07 in Calm     88% 0.00 in 0 W/m2
21:35 29.2 °F 26.1 °F 30.07 in Calm   2 mph 88% 0.00 in 0 W/m2
21:40 29.2 °F 26.1 °F 30.07 in Calm     88% 0.00 in 0 W/m2
21:45 29.2 °F 26.1 °F 30.07 in Calm     88% 0.00 in 0 W/m2
21:50 29.2 °F 26.1 °F 30.07 in Calm   1 mph 88% 0.00 in 0 W/m2
21:55 29.2 °F 26.1 °F 30.07 in Calm   1 mph 88% 0.00 in 0 W/m2
22:00 29.3 °F 26.2 °F 30.07 in Calm     88% 0.00 in 0 W/m2
22:05 29.4 °F 26.3 °F 30.07 in Calm   1 mph 88% 0.00 in 0 W/m2
22:10 29.4 °F 26.3 °F 30.07 in Calm     88% 0.00 in 0 W/m2
22:15 29.5 °F 26.4 °F 30.07 in Calm   1 mph 88% 0.00 in 0 W/m2
22:20 29.6 °F 26.5 °F 30.07 in Calm     88% 0.00 in 0 W/m2
22:25 29.6 °F 26.5 °F 30.06 in Calm     88% 0.00 in 0 W/m2
22:30 29.6 °F 26.5 °F 30.06 in Calm   1 mph 88% 0.00 in 0 W/m2
22:35 29.7 °F 26.6 °F 30.06 in Calm   1 mph 88% 0.00 in 0 W/m2
22:40 29.7 °F 26.6 °F 30.06 in Calm     88% 0.00 in 0 W/m2
22:45 29.7 °F 26.6 °F 30.05 in Calm     88% 0.00 in 0 W/m2
22:50 29.7 °F 26.6 °F 30.05 in Calm     88% 0.00 in 0 W/m2
22:55 29.7 °F 26.6 °F 30.04 in Calm   1 mph 88% 0.00 in 0 W/m2
23:00 29.7 °F 26.6 °F 30.04 in Calm     88% 0.00 in 0 W/m2
23:05 29.7 °F 26.6 °F 30.04 in Calm   1 mph 88% 0.00 in 0 W/m2
23:10 29.8 °F 26.7 °F 30.04 in SW 1 mph 1 mph 88% 0.00 in 0 W/m2
23:15 29.8 °F 26.7 °F 30.03 in Calm   1 mph 88% 0.00 in 0 W/m2
23:20 29.8 °F 26.7 °F 30.03 in Calm     88% 0.00 in 0 W/m2
23:25 29.8 °F 26.7 °F 30.03 in Calm     88% 0.00 in 0 W/m2
23:30 29.7 °F 26.3 °F 30.03 in Calm     87% 0.00 in 0 W/m2
23:35 29.6 °F 26.2 °F 30.03 in Calm     87% 0.00 in 0 W/m2
23:40 29.6 °F 26.2 °F 30.03 in Calm     87% 0.00 in 0 W/m2
23:45 29.5 °F 26.1 °F 30.03 in Calm     87% 0.00 in 0 W/m2
23:50 29.3 °F 25.9 °F 30.03 in Calm     87% 0.00 in 0 W/m2
23:55 29.2 °F 25.8 °F 30.03 in Calm     87% 0.00 in 0 W/m2
Sand Point, Michigan, USA
Compliments of Weather Underground - 2 mb